createdAt,value
2022-08-25T00:00:26.956Z,20.23
2022-08-25T00:03:29.498Z,20.25
2022-08-25T00:06:39.840Z,20.35
2022-08-25T00:09:41.459Z,20.23
2022-08-25T00:12:43.407Z,20.20
2022-08-25T00:15:46.919Z,20.06
2022-08-25T00:18:52.281Z,19.89
2022-08-25T00:21:53.931Z,19.82
2022-08-25T00:24:55.814Z,19.90
2022-08-25T00:27:59.395Z,19.80
2022-08-25T00:31:01.751Z,19.93
2022-08-25T00:34:06.363Z,19.81
2022-08-25T00:37:09.503Z,19.69
2022-08-25T00:40:12.525Z,19.65
2022-08-25T00:43:14.482Z,19.58
2022-08-25T00:46:19.602Z,19.61
2022-08-25T00:49:26.728Z,19.61
2022-08-25T00:52:31.299Z,19.57
2022-08-25T00:55:40.678Z,19.50
2022-08-25T00:58:43.057Z,19.48
2022-08-25T01:01:44.900Z,19.51
2022-08-25T01:04:49.157Z,19.56
2022-08-25T01:07:52.566Z,19.60
2022-08-25T01:11:06.874Z,19.46
2022-08-25T01:14:11.213Z,19.39
2022-08-25T01:17:14.788Z,19.45
2022-08-25T01:20:19.849Z,19.33
2022-08-25T01:23:22.965Z,19.29
2022-08-25T01:26:30.486Z,19.31
2022-08-25T01:29:33.317Z,19.53
2022-08-25T01:32:35.355Z,19.68
2022-08-25T01:35:37.337Z,19.52
2022-08-25T01:38:39.192Z,19.30
2022-08-25T01:41:55.095Z,19.24
2022-08-25T01:44:57.789Z,19.22
2022-08-25T01:47:59.573Z,19.25
2022-08-25T01:51:01.414Z,19.46
2022-08-25T01:54:03.222Z,19.32
2022-08-25T01:57:05.444Z,19.15
2022-08-25T02:00:10.175Z,19.14
2022-08-25T02:03:18.588Z,19.15
2022-08-25T02:06:29.863Z,19.12
2022-08-25T02:09:32.602Z,19.03
2022-08-25T02:12:35.293Z,19.06
2022-08-25T02:15:42.995Z,19.09
2022-08-25T02:18:45.968Z,19.04
2022-08-25T02:21:48.125Z,19.05
2022-08-25T02:24:50.261Z,19.03
2022-08-25T02:27:51.905Z,18.98
2022-08-25T02:30:58.699Z,19.01
2022-08-25T02:34:04.523Z,19.00
2022-08-25T02:37:06.163Z,18.97
2022-08-25T02:40:08.897Z,18.99
2022-08-25T02:43:11.516Z,18.99
2022-08-25T02:46:13.801Z,18.95
2022-08-25T02:49:15.696Z,18.91
2022-08-25T02:52:17.694Z,18.92
2022-08-25T02:55:19.609Z,18.91
2022-08-25T02:58:21.720Z,18.91
2022-08-25T03:01:28.400Z,18.89
2022-08-25T03:04:32.036Z,18.86
2022-08-25T03:07:35.977Z,18.87
2022-08-25T03:10:38.324Z,18.90
2022-08-25T03:13:40.839Z,18.88
2022-08-25T03:16:43.060Z,18.88
2022-08-25T03:19:48.652Z,18.83
2022-08-25T03:22:50.948Z,18.86
2022-08-25T03:26:14.933Z,18.88
2022-08-25T03:29:17.586Z,18.78
2022-08-25T03:32:19.521Z,18.80
2022-08-25T03:35:21.279Z,18.80
2022-08-25T03:38:25.413Z,18.78
2022-08-25T03:41:32.836Z,18.79
2022-08-25T03:44:34.477Z,18.79
2022-08-25T03:47:36.444Z,18.79
2022-08-25T03:50:44.815Z,18.77
2022-08-25T03:53:54.394Z,18.75
2022-08-25T03:56:56.249Z,18.77
2022-08-25T03:59:58.076Z,18.80
2022-08-25T04:02:59.897Z,18.76
2022-08-25T04:06:03.473Z,18.77
2022-08-25T04:09:05.791Z,18.80
2022-08-25T04:12:07.957Z,18.88
2022-08-25T04:15:10.695Z,18.93
2022-08-25T04:18:13.629Z,18.94
2022-08-25T04:21:17.432Z,18.80
2022-08-25T04:24:19.702Z,18.78
2022-08-25T04:27:21.395Z,18.80
2022-08-25T04:30:23.726Z,18.79
2022-08-25T04:33:25.591Z,18.82
2022-08-25T04:36:27.375Z,18.85
2022-08-25T04:39:29.741Z,18.92
2022-08-25T04:42:31.920Z,18.92
2022-08-25T04:45:40.159Z,18.99
2022-08-25T04:48:42.561Z,19.09
2022-08-25T04:51:44.346Z,19.18
2022-08-25T04:54:46.901Z,19.12
2022-08-25T04:57:48.776Z,19.19
2022-08-25T05:00:50.510Z,19.28
2022-08-25T05:03:56.027Z,19.39
2022-08-25T05:06:58.725Z,19.47
2022-08-25T05:10:00.467Z,19.53
2022-08-25T05:13:02.369Z,19.50
2022-08-25T05:16:04.832Z,19.53
2022-08-25T05:19:11.441Z,19.63
2022-08-25T05:22:13.028Z,19.76
2022-08-25T05:25:15.252Z,19.95
2022-08-25T05:28:17.640Z,20.14
2022-08-25T05:31:20.944Z,20.21
2022-08-25T05:34:22.768Z,20.31
2022-08-25T05:37:24.585Z,20.42
2022-08-25T05:40:26.347Z,20.67
2022-08-25T05:43:28.819Z,20.80
2022-08-25T05:46:31.878Z,20.94
2022-08-25T05:49:33.917Z,21.04
2022-08-25T05:52:36.522Z,21.10
2022-08-25T05:55:38.220Z,21.34
2022-08-25T05:58:41.305Z,21.49
2022-08-25T06:02:01.934Z,21.70
2022-08-25T06:05:05.094Z,21.87
2022-08-25T06:08:07.399Z,22.07
2022-08-25T06:11:09.430Z,22.10
2022-08-25T06:14:11.376Z,22.61
2022-08-25T06:17:12.978Z,22.68
2022-08-25T06:20:27.059Z,22.86
2022-08-25T06:23:28.755Z,23.19
2022-08-25T06:26:30.363Z,23.09
2022-08-25T06:29:32.530Z,23.34
2022-08-25T06:32:36.713Z,23.59
2022-08-25T06:35:43.294Z,23.60
2022-08-25T06:38:45.943Z,23.90
2022-08-25T06:41:54.505Z,24.07
2022-08-25T06:44:56.352Z,24.22
2022-08-25T06:47:59.619Z,24.13
2022-08-25T06:51:05.854Z,24.22
2022-08-25T06:54:10.655Z,24.25
2022-08-25T06:57:12.445Z,24.60
2022-08-25T07:00:17.576Z,24.67
2022-08-25T07:06:28.592Z,25.13
2022-08-25T07:09:30.661Z,25.13
2022-08-25T07:12:32.413Z,25.47
2022-08-25T07:15:38.816Z,25.48
2022-08-25T07:18:40.624Z,25.74
2022-08-25T07:21:45.891Z,25.69
2022-08-25T07:24:47.919Z,25.90
2022-08-25T07:27:49.751Z,26.56
2022-08-25T07:34:32.294Z,26.97
2022-08-25T07:37:49.942Z,27.69
2022-08-25T07:40:57.102Z,28.87
2022-08-25T07:43:58.743Z,29.78
2022-08-25T07:47:00.671Z,30.10
2022-08-25T07:50:02.528Z,30.14
2022-08-25T07:53:08.155Z,30.57
2022-08-25T07:56:16.309Z,31.56
2022-08-25T07:59:18.495Z,30.98
2022-08-25T08:02:20.398Z,32.35
2022-08-25T08:05:28.439Z,31.73
2022-08-25T08:08:30.104Z,32.99
2022-08-25T08:11:41.466Z,34.12
2022-08-25T08:14:47.042Z,34.17
2022-08-25T08:17:48.732Z,35.02
2022-08-25T08:20:52.040Z,34.92
2022-08-25T08:23:58.686Z,35.53
2022-08-25T08:27:00.760Z,35.92
2022-08-25T08:30:05.062Z,37.01
2022-08-25T08:33:11.638Z,36.44
2022-08-25T08:36:14.849Z,36.80
2022-08-25T08:39:17.184Z,37.58
2022-08-25T08:42:23.932Z,36.86
2022-08-25T08:45:40.699Z,36.75
2022-08-25T08:49:06.514Z,37.70
2022-08-25T08:52:10.173Z,39.97
2022-08-25T08:55:35.456Z,39.41
2022-08-25T08:58:41.761Z,38.47
2022-08-25T09:01:56.668Z,39.86
2022-08-25T09:05:03.981Z,37.58
2022-08-25T09:08:10.347Z,38.29
2022-08-25T09:11:28.101Z,38.50
2022-08-25T09:15:12.723Z,39.61
2022-08-25T09:18:25.566Z,40.41
2022-08-25T09:21:43.757Z,40.78
2022-08-25T09:25:08.801Z,41.42
2022-08-25T09:28:21.832Z,41.09
2022-08-25T09:31:30.123Z,43.19
2022-08-25T09:34:35.316Z,41.16
2022-08-25T09:37:36.971Z,43.57
2022-08-25T09:40:45.451Z,44.26
2022-08-25T09:43:53.754Z,42.82
2022-08-25T09:47:03.296Z,43.80
2022-08-25T09:50:06.970Z,45.66
2022-08-25T09:53:18.881Z,44.71
2022-08-25T09:56:28.151Z,42.76
2022-08-25T09:59:35.732Z,44.04
2022-08-25T10:02:38.327Z,44.74
2022-08-25T10:06:13.540Z,42.25
2022-08-25T10:09:31.156Z,43.89
2022-08-25T10:12:43.972Z,42.78
2022-08-25T10:15:47.759Z,41.88
2022-08-25T10:19:27.017Z,42.26
2022-08-25T10:22:32.552Z,41.87
2022-08-25T10:25:34.525Z,39.87
2022-08-25T10:28:42.782Z,38.65
2022-08-25T10:32:12.299Z,37.76
2022-08-25T10:35:20.533Z,36.45
2022-08-25T10:39:01.631Z,34.68
2022-08-25T10:42:11.733Z,34.48
2022-08-25T10:45:44.628Z,33.49
2022-08-25T10:49:13.839Z,34.03
2022-08-25T10:53:13.839Z,33.85
2022-08-25T10:56:26.295Z,33.95
2022-08-25T10:59:51.267Z,33.63
2022-08-25T11:03:27.922Z,33.13
2022-08-25T11:06:53.091Z,32.08
2022-08-25T11:10:05.349Z,32.02
2022-08-25T11:13:17.893Z,32.40
2022-08-25T11:16:35.685Z,32.67
2022-08-25T11:19:45.986Z,32.34
2022-08-25T11:22:55.599Z,32.27
2022-08-25T11:26:20.266Z,33.71
2022-08-25T11:29:27.083Z,34.27
2022-08-25T11:32:33.360Z,34.39
2022-08-25T11:35:58.455Z,33.93
2022-08-25T11:39:12.568Z,34.03
2022-08-25T11:42:34.839Z,33.16
2022-08-25T11:45:45.742Z,32.91
2022-08-25T11:49:00.850Z,32.89
2022-08-25T11:52:03.441Z,33.23
2022-08-25T11:55:23.176Z,33.02
2022-08-25T11:58:40.937Z,33.20
2022-08-25T12:01:43.252Z,33.17
2022-08-25T12:04:45.754Z,33.19
2022-08-25T12:07:47.725Z,33.21
2022-08-25T12:10:52.438Z,33.34
2022-08-25T12:14:13.755Z,33.60
2022-08-25T12:17:27.138Z,33.93
2022-08-25T12:20:53.928Z,34.18
2022-08-25T12:24:01.783Z,33.99
2022-08-25T12:27:06.864Z,33.81
2022-08-25T12:30:24.528Z,33.87
2022-08-25T12:33:55.176Z,34.35
2022-08-25T12:37:17.296Z,34.43
2022-08-25T12:40:27.637Z,34.90
2022-08-25T12:43:33.497Z,34.22
2022-08-25T12:46:43.567Z,33.86
2022-08-25T12:49:46.599Z,34.21
2022-08-25T12:52:53.022Z,33.72
2022-08-25T12:56:00.981Z,33.87
2022-08-25T12:59:02.528Z,34.12
2022-08-25T13:02:35.325Z,34.44
2022-08-25T13:05:49.893Z,35.98
2022-08-25T13:09:28.602Z,38.55
2022-08-25T13:12:52.877Z,40.33
2022-08-25T13:16:10.085Z,44.16
2022-08-25T13:19:19.879Z,46.83
2022-08-25T13:22:23.651Z,45.01
2022-08-25T13:25:32.258Z,45.73
2022-08-25T13:28:37.789Z,41.21
2022-08-25T13:32:02.418Z,40.13
2022-08-25T13:35:17.683Z,39.23
2022-08-25T13:38:21.962Z,39.69
2022-08-25T13:41:29.214Z,39.48
2022-08-25T13:44:35.836Z,37.70
2022-08-25T13:47:43.724Z,37.12
2022-08-25T13:50:50.150Z,40.30
2022-08-25T13:54:06.488Z,41.50
2022-08-25T13:57:14.857Z,38.27
2022-08-25T14:00:31.614Z,37.54
2022-08-25T14:03:39.238Z,36.73
2022-08-25T14:06:48.263Z,36.67
2022-08-25T14:10:02.586Z,37.07
2022-08-25T14:13:31.037Z,36.24
2022-08-25T14:16:54.168Z,36.94
2022-08-25T14:19:59.609Z,39.43
2022-08-25T14:23:09.842Z,40.18
2022-08-25T14:26:11.971Z,40.55
2022-08-25T14:29:15.035Z,38.50
2022-08-25T14:32:17.758Z,36.70
2022-08-25T14:35:19.724Z,36.44
2022-08-25T14:38:22.381Z,35.54
2022-08-25T14:41:26.654Z,34.72
2022-08-25T14:44:28.302Z,34.71
2022-08-25T14:47:32.160Z,34.13
2022-08-25T14:50:35.656Z,33.79
2022-08-25T14:53:37.516Z,33.41
2022-08-25T14:56:39.624Z,33.02
2022-08-25T14:59:45.290Z,32.75
2022-08-25T15:02:51.733Z,33.12
2022-08-25T15:05:54.597Z,33.23
2022-08-25T15:09:10.731Z,33.22
2022-08-25T15:12:14.915Z,33.18
2022-08-25T15:15:20.493Z,33.11
2022-08-25T15:18:23.060Z,32.94
2022-08-25T15:21:24.702Z,32.93
2022-08-25T15:24:27.419Z,32.44
2022-08-25T15:27:30.843Z,32.43
2022-08-25T15:30:32.918Z,32.55
2022-08-25T15:33:34.615Z,32.41
2022-08-25T15:36:36.922Z,32.13
2022-08-25T15:39:43.246Z,31.96
2022-08-25T15:42:46.342Z,32.06
2022-08-25T15:45:49.097Z,31.87
2022-08-25T15:48:52.863Z,31.72
2022-08-25T15:51:56.072Z,31.48
2022-08-25T15:55:00.032Z,31.38
2022-08-25T15:58:01.998Z,31.12
2022-08-25T16:01:03.880Z,31.16
2022-08-25T16:04:06.393Z,31.06
2022-08-25T16:07:08.338Z,31.18
2022-08-25T16:10:10.772Z,31.08
2022-08-25T16:13:13.643Z,31.19
2022-08-25T16:16:16.693Z,31.11
2022-08-25T16:19:18.862Z,30.85
2022-08-25T16:22:20.600Z,30.73
2022-08-25T16:25:22.738Z,30.57
2022-08-25T16:28:24.917Z,30.55
2022-08-25T16:31:26.833Z,30.33
2022-08-25T16:34:30.901Z,30.39
2022-08-25T16:37:36.007Z,30.28
2022-08-25T16:40:42.701Z,30.50
2022-08-25T16:43:45.905Z,30.18
2022-08-25T16:46:48.223Z,29.97
2022-08-25T16:49:50.081Z,29.64
2022-08-25T16:53:10.881Z,29.46
2022-08-25T16:56:12.772Z,29.31
2022-08-25T16:59:14.785Z,29.05
2022-08-25T17:02:16.670Z,28.93
2022-08-25T17:05:20.801Z,28.79
2022-08-25T17:08:28.767Z,28.74
2022-08-25T17:11:35.405Z,28.68
2022-08-25T17:14:37.369Z,28.58
2022-08-25T17:17:39.292Z,28.34
2022-08-25T17:20:44.742Z,28.40
2022-08-25T17:23:46.658Z,28.18
2022-08-25T17:26:51.084Z,28.27
2022-08-25T17:29:52.755Z,28.06
2022-08-25T17:32:54.765Z,27.74
2022-08-25T17:35:57.938Z,27.74
2022-08-25T17:38:59.793Z,27.53
2022-08-25T17:42:01.467Z,27.48
2022-08-25T17:45:04.289Z,27.68
2022-08-25T17:48:08.928Z,27.59
2022-08-25T17:51:11.235Z,27.66
2022-08-25T17:54:13.862Z,27.64
2022-08-25T17:57:16.321Z,27.53
2022-08-25T18:00:20.805Z,27.54
2022-08-25T18:03:22.528Z,27.55
2022-08-25T18:06:26.303Z,27.77
2022-08-25T18:09:28.207Z,27.36
2022-08-25T18:12:30.218Z,27.26
2022-08-25T18:15:33.592Z,27.43
2022-08-25T18:18:35.667Z,27.29
2022-08-25T18:21:38.224Z,27.47
2022-08-25T18:24:40.196Z,27.13
2022-08-25T18:27:42.744Z,26.87
2022-08-25T18:30:44.976Z,26.81
2022-08-25T18:33:47.110Z,26.52
2022-08-25T18:36:52.667Z,26.85
2022-08-25T18:40:12.694Z,26.56
2022-08-25T18:43:16.016Z,26.50
2022-08-25T18:46:17.709Z,26.38
2022-08-25T18:49:26.686Z,26.32
2022-08-25T18:52:30.674Z,26.33
2022-08-25T18:55:32.996Z,26.29
2022-08-25T18:58:34.686Z,26.23
2022-08-25T19:01:38.021Z,26.26
2022-08-25T19:04:40.601Z,26.32
2022-08-25T19:07:44.034Z,26.31
2022-08-25T19:10:48.293Z,26.16
2022-08-25T19:13:51.578Z,26.12
2022-08-25T19:16:54.860Z,26.07
2022-08-25T19:19:58.685Z,25.90
2022-08-25T19:23:01.282Z,25.71
2022-08-25T19:26:03.268Z,25.51
2022-08-25T19:29:09.600Z,25.37
2022-08-25T19:32:12.713Z,25.18
2022-08-25T19:35:31.964Z,24.98
2022-08-25T19:38:35.508Z,24.83
2022-08-25T19:41:37.648Z,24.67
2022-08-25T19:44:40.257Z,24.59
2022-08-25T19:47:43.753Z,24.44
2022-08-25T19:50:45.829Z,24.38
2022-08-25T19:53:52.306Z,24.52
2022-08-25T19:56:57.333Z,24.34
2022-08-25T19:59:59.508Z,24.44
2022-08-25T20:03:02.597Z,24.38
2022-08-25T20:06:05.222Z,24.05
2022-08-25T20:09:07.814Z,23.86
2022-08-25T20:12:25.315Z,23.94
2022-08-25T20:15:34.347Z,23.94
2022-08-25T20:18:40.547Z,23.92
2022-08-25T20:21:44.391Z,23.77
2022-08-25T20:24:49.641Z,23.59
2022-08-25T20:27:57.616Z,23.39
2022-08-25T20:30:59.691Z,23.29
2022-08-25T20:34:03.039Z,23.28
2022-08-25T20:37:05.170Z,23.18
2022-08-25T20:40:09.868Z,23.15
2022-08-25T20:43:12.120Z,23.17
2022-08-25T20:46:14.123Z,23.16
2022-08-25T20:49:16.122Z,22.98
2022-08-25T20:52:19.694Z,22.90
2022-08-25T20:55:22.109Z,23.01
2022-08-25T20:58:23.760Z,22.94
2022-08-25T21:01:38.039Z,22.76
2022-08-25T21:04:49.107Z,22.63
2022-08-25T21:07:52.068Z,22.50
2022-08-25T21:10:54.068Z,22.36
2022-08-25T21:13:57.628Z,22.36
2022-08-25T21:16:59.661Z,22.49
2022-08-25T21:20:02.583Z,22.58
2022-08-25T21:23:04.777Z,22.46
2022-08-25T21:26:13.974Z,22.39
2022-08-25T21:29:16.792Z,22.39
2022-08-25T21:32:19.672Z,22.57
2022-08-25T21:35:23.645Z,22.45
2022-08-25T21:38:28.794Z,22.36
2022-08-25T21:41:33.671Z,22.36
2022-08-25T21:44:35.535Z,22.37
2022-08-25T21:47:42.241Z,22.43
2022-08-25T21:50:43.927Z,22.28
2022-08-25T21:53:45.922Z,22.12
2022-08-25T21:56:52.959Z,22.08
2022-08-25T21:59:54.889Z,22.06
2022-08-25T22:02:57.209Z,22.20
2022-08-25T22:06:05.146Z,22.14
2022-08-25T22:09:09.695Z,22.09
2022-08-25T22:12:12.064Z,22.15
2022-08-25T22:15:15.625Z,22.07
2022-08-25T22:18:17.820Z,22.02
2022-08-25T22:21:22.406Z,22.04
2022-08-25T22:24:28.414Z,22.19
2022-08-25T22:27:31.860Z,22.09
2022-08-25T22:30:34.384Z,22.11
2022-08-25T22:33:37.793Z,21.91
2022-08-25T22:36:42.935Z,21.88
2022-08-25T22:39:45.522Z,22.18
2022-08-25T22:42:48.311Z,22.03
2022-08-25T22:46:00.225Z,22.09
2022-08-25T22:49:02.251Z,21.87
2022-08-25T22:52:04.776Z,21.75
2022-08-25T22:55:08.920Z,21.70
2022-08-25T22:58:14.734Z,21.65
2022-08-25T23:01:18.807Z,21.58
2022-08-25T23:04:20.998Z,21.55
2022-08-25T23:07:24.282Z,21.48
2022-08-25T23:10:26.536Z,21.47
2022-08-25T23:13:31.050Z,21.47
2022-08-25T23:16:38.459Z,21.45
2022-08-25T23:19:40.338Z,21.44
2022-08-25T23:22:42.513Z,21.41
2022-08-25T23:25:44.656Z,21.43
2022-08-25T23:28:47.859Z,21.35
2022-08-25T23:31:50.716Z,21.31
2022-08-25T23:34:53.461Z,21.26
2022-08-25T23:37:55.122Z,21.22
2022-08-25T23:40:57.283Z,21.17
2022-08-25T23:43:59.008Z,21.13
2022-08-25T23:47:00.904Z,21.16
2022-08-25T23:50:02.734Z,21.10
2022-08-25T23:53:04.584Z,21.10
2022-08-25T23:56:06.626Z,21.07
2022-08-25T23:59:10.901Z,21.12
